createdAt,value
2022-09-30T03:59:32.976Z,50.93
2022-09-30T04:00:32.992Z,51.21
2022-09-30T04:01:31.340Z,51.21
2022-09-30T04:02:32.962Z,51.31
2022-09-30T04:03:32.948Z,51.12
2022-09-30T04:04:32.965Z,51.12
2022-09-30T04:05:32.946Z,51.31
2022-09-30T04:06:32.947Z,51.21
2022-09-30T04:07:32.949Z,51.12
2022-09-30T04:08:33.952Z,51.12
2022-09-30T04:09:33.041Z,51.12
2022-09-30T04:10:32.950Z,51.50
2022-09-30T04:11:32.957Z,51.70
2022-09-30T04:12:32.951Z,51.70
2022-09-30T04:13:32.975Z,51.41
2022-09-30T04:14:32.964Z,51.60
2022-09-30T04:15:31.268Z,51.60
2022-09-30T04:16:33.032Z,51.79
2022-09-30T04:17:32.954Z,51.21
2022-09-30T04:18:32.967Z,51.41
2022-09-30T04:19:32.977Z,51.89
2022-09-30T04:20:32.980Z,51.70
2022-09-30T04:21:32.976Z,51.60
2022-09-30T04:22:32.969Z,51.89
2022-09-30T04:23:33.471Z,51.60
2022-09-30T04:24:31.233Z,51.62
2022-09-30T04:25:31.221Z,51.92
2022-09-30T04:26:31.222Z,52.01
2022-09-30T04:27:31.214Z,51.89
2022-09-30T04:28:32.482Z,52.11
2022-09-30T04:29:32.978Z,51.53
2022-09-30T04:30:33.557Z,52.01
2022-09-30T04:31:33.082Z,51.62
2022-09-30T04:32:31.195Z,51.72
2022-09-30T04:33:31.204Z,51.43
2022-09-30T04:34:31.202Z,51.62
2022-09-30T04:35:31.248Z,52.11
2022-09-30T04:36:32.986Z,51.92
2022-09-30T04:37:32.972Z,51.92
2022-09-30T04:38:32.183Z,51.34
2022-09-30T04:39:32.993Z,51.72
2022-09-30T04:40:32.992Z,52.01
2022-09-30T04:41:32.984Z,51.82
2022-09-30T04:42:32.979Z,51.72
2022-09-30T04:43:32.981Z,51.43
2022-09-30T04:44:33.001Z,51.82
2022-09-30T04:45:33.065Z,51.72
2022-09-30T04:46:32.980Z,51.24
2022-09-30T04:47:32.994Z,51.72
2022-09-30T04:48:32.986Z,51.34
2022-09-30T04:49:32.980Z,51.34
2022-09-30T04:50:32.998Z,51.62
2022-09-30T04:51:32.987Z,51.62
2022-09-30T04:52:32.985Z,51.34
2022-09-30T04:53:32.987Z,51.72
2022-09-30T04:54:32.986Z,51.34
2022-09-30T04:55:32.998Z,51.72
2022-09-30T04:56:33.008Z,51.34
2022-09-30T04:57:32.990Z,51.43
2022-09-30T04:58:36.882Z,51.62
2022-09-30T04:59:32.990Z,51.43
2022-09-30T05:00:33.038Z,51.05
2022-09-30T05:01:33.020Z,51.14
2022-09-30T05:02:32.992Z,51.14
2022-09-30T05:03:33.007Z,51.53
2022-09-30T05:04:33.084Z,51.43
2022-09-30T05:05:32.994Z,51.53
2022-09-30T05:06:33.012Z,51.62
2022-09-30T05:07:31.086Z,51.34
2022-09-30T05:08:32.086Z,51.53
2022-09-30T05:09:31.113Z,51.17
2022-09-30T05:10:32.999Z,51.07
2022-09-30T05:11:33.011Z,51.36
2022-09-30T05:12:31.069Z,51.17
2022-09-30T05:13:33.028Z,51.43
2022-09-30T05:14:32.080Z,51.43
2022-09-30T05:15:31.082Z,51.07
2022-09-30T05:16:33.063Z,51.05
2022-09-30T05:17:32.065Z,51.43
2022-09-30T05:18:33.012Z,51.53
2022-09-30T05:19:32.550Z,51.26
2022-09-30T05:20:33.003Z,51.07
2022-09-30T05:21:33.006Z,51.05
2022-09-30T05:22:33.005Z,51.24
2022-09-30T05:23:33.013Z,50.95
2022-09-30T05:24:33.031Z,51.24
2022-09-30T05:25:31.039Z,51.17
2022-09-30T05:26:33.033Z,51.14
2022-09-30T05:27:32.690Z,51.34
2022-09-30T05:28:31.042Z,51.34
2022-09-30T05:29:31.025Z,51.24
2022-09-30T05:30:31.015Z,51.36
2022-09-30T05:31:31.083Z,51.43
2022-09-30T05:32:32.037Z,51.24
2022-09-30T05:33:31.041Z,51.26
2022-09-30T05:34:32.532Z,51.36
2022-09-30T05:35:31.007Z,51.24
2022-09-30T05:36:30.996Z,51.24
2022-09-30T05:37:30.997Z,51.24
2022-09-30T05:38:32.046Z,51.26
2022-09-30T05:39:31.982Z,51.26
2022-09-30T05:40:30.988Z,51.26
2022-09-30T05:41:32.542Z,51.24
2022-09-30T05:42:32.561Z,50.88
2022-09-30T05:43:32.044Z,51.26
2022-09-30T05:44:30.972Z,50.88
2022-09-30T05:45:32.557Z,50.78
2022-09-30T05:46:32.128Z,51.24
2022-09-30T05:47:31.970Z,51.36
2022-09-30T05:48:32.714Z,50.98
2022-09-30T05:49:32.536Z,50.88
2022-09-30T05:50:38.847Z,50.88
2022-09-30T05:51:32.563Z,51.36
2022-09-30T05:52:32.625Z,51.26
2022-09-30T05:53:32.618Z,51.26
2022-09-30T05:54:32.575Z,50.98
2022-09-30T05:55:35.810Z,51.07
2022-09-30T05:56:31.005Z,51.36
2022-09-30T05:57:30.976Z,51.07
2022-09-30T05:58:30.929Z,51.26
2022-09-30T05:59:32.540Z,51.36
2022-09-30T06:00:31.512Z,50.98
2022-09-30T06:01:31.005Z,50.78
2022-09-30T06:02:32.672Z,50.98
2022-09-30T06:03:34.503Z,50.69
2022-09-30T06:04:32.563Z,50.88
2022-09-30T06:05:32.591Z,50.78
2022-09-30T06:06:32.582Z,50.78
2022-09-30T06:07:30.942Z,50.69
2022-09-30T06:08:30.899Z,50.88
2022-09-30T06:09:30.943Z,50.98
2022-09-30T06:10:32.563Z,50.88
2022-09-30T06:11:32.552Z,50.49
2022-09-30T06:12:32.677Z,50.59
2022-09-30T06:13:32.923Z,50.59
2022-09-30T06:14:32.605Z,50.88
2022-09-30T06:15:32.582Z,50.98
2022-09-30T06:16:32.588Z,50.88
2022-09-30T06:17:32.621Z,51.07
2022-09-30T06:18:32.581Z,50.49
2022-09-30T06:19:32.553Z,50.98
2022-09-30T06:20:32.559Z,50.98
2022-09-30T06:21:32.559Z,51.07
2022-09-30T06:22:32.637Z,51.07
2022-09-30T06:23:32.566Z,50.49
2022-09-30T06:24:32.582Z,50.30
2022-09-30T06:25:30.866Z,51.17
2022-09-30T06:26:30.848Z,51.17
2022-09-30T06:27:30.841Z,51.17
2022-09-30T06:28:30.836Z,51.17
2022-09-30T06:29:32.587Z,50.98
2022-09-30T06:30:35.030Z,50.69
2022-09-30T06:31:30.922Z,50.78
2022-09-30T06:32:30.826Z,50.69
2022-09-30T06:33:32.584Z,50.59
2022-09-30T06:34:31.219Z,50.78
2022-09-30T06:35:30.839Z,50.62
2022-09-30T06:36:30.852Z,50.71
2022-09-30T06:37:30.811Z,50.71
2022-09-30T06:38:32.596Z,50.32
2022-09-30T06:39:30.936Z,50.23
2022-09-30T06:40:32.093Z,50.52
2022-09-30T06:41:30.828Z,50.32
2022-09-30T06:42:30.829Z,50.32
2022-09-30T06:43:38.750Z,50.32
2022-09-30T06:44:30.910Z,50.13
2022-09-30T06:45:33.314Z,50.42
2022-09-30T06:46:31.533Z,50.42
2022-09-30T06:47:33.654Z,50.13
2022-09-30T06:48:38.254Z,50.04
2022-09-30T06:49:44.790Z,50.23
2022-09-30T06:50:32.606Z,50.04
2022-09-30T06:51:30.778Z,50.35
2022-09-30T06:52:32.592Z,50.54
2022-09-30T06:53:32.605Z,50.35
2022-09-30T06:54:32.675Z,50.06
2022-09-30T06:55:32.594Z,50.64
2022-09-30T06:56:32.587Z,50.74
2022-09-30T06:57:32.632Z,50.06
2022-09-30T06:58:32.606Z,50.06
2022-09-30T06:59:32.595Z,50.26
2022-09-30T07:00:32.658Z,49.87
2022-09-30T07:01:32.590Z,49.87
2022-09-30T07:02:32.662Z,50.26
2022-09-30T07:03:32.625Z,50.16
2022-09-30T07:04:32.615Z,50.06
2022-09-30T07:05:32.595Z,50.45
2022-09-30T07:06:32.615Z,50.47
2022-09-30T07:07:31.739Z,50.54
2022-09-30T07:08:30.773Z,49.99
2022-09-30T07:09:30.810Z,49.68
2022-09-30T07:10:32.621Z,50.18
2022-09-30T07:11:31.742Z,50.28
2022-09-30T07:12:32.661Z,50.09
2022-09-30T07:13:32.626Z,50.18
2022-09-30T07:14:32.695Z,50.18
2022-09-30T07:15:32.622Z,50.09
2022-09-30T07:16:32.637Z,50.28
2022-09-30T07:17:32.632Z,49.80
2022-09-30T07:18:32.670Z,50.09
2022-09-30T07:19:32.642Z,50.09
2022-09-30T07:20:32.609Z,49.99
2022-09-30T07:21:32.660Z,49.70
2022-09-30T07:22:32.612Z,49.90
2022-09-30T07:23:32.632Z,49.80
2022-09-30T07:24:32.639Z,49.60
2022-09-30T07:25:32.719Z,49.90
2022-09-30T07:26:32.678Z,49.53
2022-09-30T07:27:32.635Z,49.70
2022-09-30T07:28:32.666Z,49.80
2022-09-30T07:29:44.612Z,49.63
2022-09-30T07:30:30.730Z,49.92
2022-09-30T07:31:36.694Z,49.92
2022-09-30T07:32:36.781Z,49.82
2022-09-30T07:33:31.903Z,49.53
2022-09-30T07:34:30.908Z,49.53
2022-09-30T07:35:34.742Z,49.63
2022-09-30T07:36:33.225Z,49.73
2022-09-30T07:37:33.274Z,49.92
2022-09-30T07:38:35.154Z,49.34
2022-09-30T07:39:30.677Z,49.53
2022-09-30T07:40:32.649Z,49.24
2022-09-30T07:41:30.673Z,49.34
2022-09-30T07:42:33.725Z,49.63
2022-09-30T07:43:32.835Z,49.44
2022-09-30T07:44:30.703Z,49.82
2022-09-30T07:45:32.728Z,49.53
2022-09-30T07:46:30.830Z,49.75
2022-09-30T07:47:36.379Z,49.27
2022-09-30T07:48:30.812Z,49.65
2022-09-30T07:49:30.663Z,49.37
2022-09-30T07:50:32.647Z,49.37
2022-09-30T07:51:30.716Z,49.65
2022-09-30T07:52:30.676Z,49.27
2022-09-30T07:53:30.722Z,49.55
2022-09-30T07:54:30.897Z,49.46
2022-09-30T07:55:36.759Z,49.27
2022-09-30T07:57:37.379Z,49.27
2022-09-30T07:58:30.647Z,49.27
2022-09-30T07:59:33.180Z,49.37
2022-09-30T08:00:42.144Z,49.55
2022-09-30T08:02:33.261Z,49.17
2022-09-30T08:03:32.232Z,49.39
2022-09-30T08:04:31.242Z,49.19
2022-09-30T08:05:30.667Z,49.68
2022-09-30T08:06:32.237Z,49.00
2022-09-30T08:07:30.640Z,49.00
2022-09-30T08:08:32.180Z,49.29
2022-09-30T08:09:30.977Z,49.00
2022-09-30T08:10:30.641Z,48.90
2022-09-30T08:11:31.672Z,49.19
2022-09-30T08:12:30.743Z,49.10
2022-09-30T08:13:31.247Z,49.19
2022-09-30T08:14:33.326Z,49.10
2022-09-30T08:15:30.651Z,49.10
2022-09-30T08:16:32.250Z,49.00
2022-09-30T08:17:37.173Z,49.22
2022-09-30T08:18:38.221Z,48.90
2022-09-30T08:19:32.252Z,48.90
2022-09-30T08:20:30.785Z,49.00
2022-09-30T08:21:33.197Z,49.12
2022-09-30T08:22:33.861Z,49.02
2022-09-30T08:23:30.636Z,49.02
2022-09-30T08:24:30.745Z,49.12
2022-09-30T08:25:30.628Z,48.83
2022-09-30T08:26:38.317Z,49.02
2022-09-30T08:27:30.841Z,49.12
2022-09-30T08:28:36.362Z,48.83
2022-09-30T08:29:57.373Z,49.22
2022-09-30T08:30:30.631Z,49.22
2022-09-30T08:31:32.418Z,48.74
2022-09-30T08:32:32.182Z,49.02
2022-09-30T08:33:32.184Z,48.83
2022-09-30T08:35:32.285Z,49.02
2022-09-30T08:36:30.613Z,48.83
2022-09-30T08:37:30.613Z,49.15
2022-09-30T08:38:30.655Z,48.64
2022-09-30T08:39:32.181Z,49.12
2022-09-30T08:40:32.182Z,49.05
2022-09-30T08:41:32.211Z,49.15
2022-09-30T08:42:40.302Z,48.86
2022-09-30T08:43:30.633Z,48.76
2022-09-30T08:44:31.695Z,48.66
2022-09-30T08:45:31.671Z,48.86
2022-09-30T08:46:32.198Z,49.05
2022-09-30T08:47:32.199Z,49.05
2022-09-30T08:48:30.658Z,48.86
2022-09-30T08:49:32.190Z,48.86
2022-09-30T08:50:32.205Z,48.95
2022-09-30T08:51:32.233Z,49.05
2022-09-30T08:52:47.985Z,48.95
2022-09-30T08:53:33.225Z,49.05
2022-09-30T08:54:34.535Z,48.86
2022-09-30T08:55:32.230Z,48.86
2022-09-30T08:56:31.107Z,49.15
2022-09-30T08:57:32.086Z,48.66
2022-09-30T08:58:32.298Z,48.66
2022-09-30T08:59:31.653Z,49.05
2022-09-30T09:00:32.515Z,48.86
2022-09-30T09:01:32.307Z,48.86
2022-09-30T09:02:32.452Z,48.95
2022-09-30T09:03:32.216Z,49.05
2022-09-30T09:04:32.265Z,48.86
2022-09-30T09:05:32.262Z,48.79
2022-09-30T09:06:32.240Z,48.76
2022-09-30T09:07:32.228Z,48.97
2022-09-30T09:08:32.246Z,49.05
2022-09-30T09:09:32.223Z,49.07
2022-09-30T09:10:30.714Z,49.07
2022-09-30T09:11:30.597Z,48.79
2022-09-30T09:12:30.597Z,49.07
2022-09-30T09:13:32.270Z,49.07
2022-09-30T09:14:30.600Z,49.07
2022-09-30T09:15:30.661Z,49.07
2022-09-30T09:16:30.683Z,49.07
2022-09-30T09:17:30.933Z,48.88
2022-09-30T09:18:32.295Z,48.79
2022-09-30T09:19:32.219Z,48.97
2022-09-30T09:20:32.258Z,49.07
2022-09-30T09:21:34.048Z,48.97
2022-09-30T09:22:32.264Z,48.97
2022-09-30T09:23:32.219Z,48.97
2022-09-30T09:24:33.144Z,49.07
2022-09-30T09:25:40.679Z,48.97
2022-09-30T09:26:31.081Z,49.07
2022-09-30T09:28:33.201Z,49.07
2022-09-30T09:29:33.986Z,49.17
2022-09-30T09:30:31.000Z,49.17
2022-09-30T09:31:32.408Z,49.17
2022-09-30T09:32:30.618Z,48.88
2022-09-30T09:33:33.642Z,49.17
2022-09-30T09:34:30.645Z,48.69
2022-09-30T09:35:31.506Z,49.07
2022-09-30T09:36:34.353Z,49.07
2022-09-30T09:37:32.411Z,48.88
2022-09-30T09:38:30.727Z,49.07
2022-09-30T09:39:30.626Z,49.10
2022-09-30T09:40:30.614Z,49.07
2022-09-30T09:41:32.309Z,49.07
2022-09-30T09:42:30.714Z,49.29
2022-09-30T09:43:31.922Z,49.10
2022-09-30T09:44:30.734Z,49.19
2022-09-30T09:45:33.494Z,49.00
2022-09-30T09:46:30.827Z,49.19
2022-09-30T09:47:31.179Z,49.00
2022-09-30T09:48:30.769Z,49.39
2022-09-30T09:49:31.880Z,49.00
2022-09-30T09:50:33.280Z,49.19
2022-09-30T09:51:30.696Z,49.29
2022-09-30T09:52:32.728Z,49.19
2022-09-30T09:53:32.434Z,49.19
2022-09-30T09:54:30.797Z,49.39
2022-09-30T09:55:32.376Z,49.10
2022-09-30T09:56:32.470Z,49.29
2022-09-30T09:57:32.501Z,49.19
2022-09-30T09:58:30.737Z,49.29
2022-09-30T09:59:32.342Z,49.19
2022-09-30T10:00:32.314Z,49.22
2022-09-30T10:02:46.448Z,49.10
2022-09-30T10:13:47.737Z,48.93
2022-09-30T10:14:47.719Z,48.93
2022-09-30T10:15:47.247Z,48.74
2022-09-30T10:16:46.993Z,48.83
2022-09-30T10:17:47.712Z,48.76
2022-09-30T10:18:47.714Z,48.76
2022-09-30T10:19:47.742Z,48.95
2022-09-30T10:20:47.744Z,48.85
2022-09-30T10:21:47.713Z,49.05
2022-09-30T10:22:47.733Z,49.15
2022-09-30T10:23:47.747Z,49.05
2022-09-30T10:24:47.795Z,48.95
2022-09-30T10:25:47.738Z,48.95
2022-09-30T10:26:49.121Z,49.05
2022-09-30T10:27:47.883Z,48.85
2022-09-30T10:28:47.777Z,48.85
2022-09-30T10:29:46.136Z,49.15
2022-09-30T10:30:49.179Z,48.97
2022-09-30T10:31:46.208Z,48.97
2022-09-30T10:32:47.745Z,48.97
2022-09-30T10:33:46.066Z,49.07
2022-09-30T10:34:45.991Z,49.07
2022-09-30T10:35:47.823Z,49.07
2022-09-30T10:36:46.818Z,48.88
2022-09-30T10:37:50.864Z,48.69
2022-09-30T10:38:45.994Z,49.00
2022-09-30T10:39:47.753Z,48.90
2022-09-30T10:40:46.071Z,48.90
2022-09-30T10:41:47.771Z,48.80
2022-09-30T10:42:45.980Z,48.90
2022-09-30T10:43:47.749Z,48.90
2022-09-30T10:44:47.748Z,48.80
2022-09-30T10:46:01.485Z,48.90
2022-09-30T10:46:46.085Z,48.61
2022-09-30T10:47:47.788Z,48.73
2022-09-30T10:48:46.023Z,48.73
2022-09-30T10:49:47.747Z,48.83
2022-09-30T10:50:47.789Z,48.64
2022-09-30T10:51:47.873Z,48.54
2022-09-30T10:52:46.013Z,48.73
2022-09-30T10:53:47.745Z,48.54
2022-09-30T10:54:47.763Z,48.44
2022-09-30T10:55:47.763Z,48.57
2022-09-30T10:56:47.756Z,48.57
2022-09-30T10:57:47.751Z,48.57
2022-09-30T10:58:47.853Z,48.66
2022-09-30T10:59:47.759Z,48.47
2022-09-30T11:00:47.823Z,48.66
2022-09-30T11:01:47.823Z,48.37
2022-09-30T11:02:49.445Z,48.39
2022-09-30T11:03:47.832Z,48.30
2022-09-30T11:04:47.782Z,48.30
2022-09-30T11:06:47.792Z,48.30
2022-09-30T11:07:47.767Z,48.20
2022-09-30T11:08:47.773Z,48.10
2022-09-30T11:09:47.779Z,48.10
2022-09-30T11:10:47.764Z,48.10
2022-09-30T11:11:47.799Z,48.03
2022-09-30T11:12:47.769Z,47.93
2022-09-30T11:13:47.848Z,48.03
2022-09-30T11:14:47.914Z,48.03
2022-09-30T11:15:57.805Z,47.83
2022-09-30T11:16:48.235Z,48.03
2022-09-30T11:17:59.776Z,47.74
2022-09-30T11:18:50.633Z,47.83
2022-09-30T11:19:46.218Z,47.66
2022-09-30T11:20:50.572Z,47.66
2022-09-30T11:21:47.844Z,47.76
2022-09-30T11:22:46.089Z,47.86
2022-09-30T11:23:46.116Z,47.37
2022-09-30T11:24:46.113Z,47.56
2022-09-30T11:25:47.796Z,47.66
2022-09-30T11:26:46.096Z,47.47
2022-09-30T11:27:46.125Z,47.49
2022-09-30T11:28:47.787Z,47.39
2022-09-30T11:29:46.109Z,47.49
2022-09-30T11:30:47.803Z,47.10
2022-09-30T11:31:46.262Z,47.00
2022-09-30T11:32:46.123Z,47.03
2022-09-30T11:33:47.803Z,47.22
2022-09-30T11:34:47.804Z,47.13
2022-09-30T11:35:47.806Z,47.22
2022-09-30T11:36:48.860Z,47.03
2022-09-30T11:37:46.125Z,46.76
2022-09-30T11:38:46.134Z,46.86
2022-09-30T11:39:47.810Z,46.56
2022-09-30T11:40:47.801Z,46.47
2022-09-30T11:41:46.151Z,46.47
2022-09-30T11:42:46.150Z,46.95
2022-09-30T11:43:47.815Z,46.78
2022-09-30T11:44:46.155Z,46.78
2022-09-30T11:45:46.221Z,46.88
2022-09-30T11:46:47.822Z,46.30
2022-09-30T11:47:46.168Z,46.22
2022-09-30T11:48:47.826Z,46.12
2022-09-30T11:49:46.190Z,46.22
2022-09-30T11:50:46.189Z,46.31
2022-09-30T11:51:47.824Z,46.24
2022-09-30T11:52:47.818Z,46.14
2022-09-30T11:53:47.818Z,45.95
2022-09-30T11:54:46.203Z,45.85
2022-09-30T11:55:47.207Z,46.14
2022-09-30T11:56:47.834Z,45.97
2022-09-30T11:57:47.818Z,45.68
2022-09-30T11:58:47.853Z,45.78
2022-09-30T11:59:47.849Z,45.78
2022-09-30T12:00:47.824Z,45.80
2022-09-30T12:01:47.858Z,45.70
2022-09-30T12:02:47.923Z,45.31
2022-09-30T12:03:47.824Z,45.12
2022-09-30T12:04:47.837Z,45.21
2022-09-30T12:05:47.840Z,45.21
2022-09-30T12:06:47.839Z,45.12
2022-09-30T12:07:47.842Z,45.12
2022-09-30T12:08:47.852Z,45.21
2022-09-30T12:09:47.848Z,44.82
2022-09-30T12:10:47.833Z,45.21
2022-09-30T12:11:47.834Z,45.31
2022-09-30T12:12:47.858Z,45.21
2022-09-30T12:13:47.840Z,45.19
2022-09-30T12:14:47.859Z,45.19
2022-09-30T12:15:47.842Z,44.80
2022-09-30T12:16:48.006Z,45.19
2022-09-30T12:17:46.304Z,44.70
2022-09-30T12:18:47.322Z,44.60
2022-09-30T12:19:46.319Z,45.09
2022-09-30T12:20:47.878Z,45.00
2022-09-30T12:21:46.340Z,44.31
2022-09-30T12:22:46.323Z,44.82
2022-09-30T12:23:47.864Z,44.34
2022-09-30T12:24:47.850Z,44.14
2022-09-30T12:25:47.872Z,43.96
2022-09-30T12:26:47.851Z,43.87
2022-09-30T12:27:47.892Z,43.87
2022-09-30T12:28:47.870Z,43.87
2022-09-30T12:29:47.868Z,44.18
2022-09-30T12:30:47.864Z,43.79
2022-09-30T12:31:46.409Z,43.69
2022-09-30T12:32:48.359Z,43.49
2022-09-30T12:33:47.874Z,43.42
2022-09-30T12:34:48.363Z,43.23
2022-09-30T12:35:48.362Z,43.32
2022-09-30T12:36:48.363Z,43.24
2022-09-30T12:37:46.400Z,43.05
2022-09-30T12:38:48.391Z,43.17
2022-09-30T12:39:48.376Z,43.05
2022-09-30T12:40:52.321Z,43.05
2022-09-30T12:41:48.379Z,43.17
2022-09-30T12:42:48.371Z,43.05
2022-09-30T12:43:48.372Z,43.24
2022-09-30T12:44:48.388Z,43.34
2022-09-30T12:45:48.467Z,43.07
2022-09-30T12:46:48.380Z,43.17
2022-09-30T12:47:48.396Z,42.78
2022-09-30T12:48:46.451Z,42.80
2022-09-30T12:49:46.476Z,42.60
2022-09-30T12:50:46.470Z,42.41
2022-09-30T12:51:48.398Z,42.41
2022-09-30T12:52:46.469Z,42.31
2022-09-30T12:53:46.484Z,42.72
2022-09-30T12:54:46.483Z,42.13
2022-09-30T12:55:46.496Z,42.43
2022-09-30T12:56:48.399Z,42.43
2022-09-30T12:57:46.500Z,42.03
2022-09-30T12:58:46.511Z,42.05
2022-09-30T12:59:47.423Z,41.96
2022-09-30T13:00:47.453Z,41.96
2022-09-30T13:01:46.595Z,41.76
2022-09-30T13:02:48.396Z,41.56
2022-09-30T13:03:46.539Z,41.58
2022-09-30T13:04:48.419Z,41.58
2022-09-30T13:05:48.414Z,41.88
2022-09-30T13:06:48.400Z,41.78
2022-09-30T13:07:48.413Z,42.08
2022-09-30T13:08:48.413Z,41.68
2022-09-30T13:09:46.644Z,41.68
2022-09-30T13:10:48.405Z,41.58
2022-09-30T13:11:46.594Z,42.10
2022-09-30T13:12:46.598Z,41.71
2022-09-30T13:13:48.442Z,41.98
2022-09-30T13:14:46.604Z,41.96
2022-09-30T13:15:48.435Z,41.96
2022-09-30T13:16:46.643Z,41.96
2022-09-30T13:17:46.732Z,41.47
2022-09-30T13:18:46.963Z,41.66
2022-09-30T13:19:48.431Z,41.56
2022-09-30T13:20:48.437Z,41.58
2022-09-30T13:21:52.214Z,41.39
2022-09-30T13:22:46.687Z,41.19
2022-09-30T13:23:48.424Z,41.19
2022-09-30T13:24:46.666Z,40.82
2022-09-30T13:25:46.680Z,40.92
2022-09-30T13:26:48.434Z,41.02
2022-09-30T13:27:48.482Z,40.63
2022-09-30T13:28:48.426Z,40.82
2022-09-30T13:29:48.436Z,40.84
2022-09-30T13:30:48.508Z,40.94
2022-09-30T13:31:48.759Z,41.03
2022-09-30T13:32:48.439Z,40.94
2022-09-30T13:33:48.433Z,40.55
2022-09-30T13:34:48.434Z,40.84
2022-09-30T13:35:48.446Z,40.66
2022-09-30T13:36:48.435Z,40.37
2022-09-30T13:37:48.438Z,40.64
2022-09-30T13:38:48.443Z,40.53
2022-09-30T13:39:48.442Z,40.72
2022-09-30T13:41:03.942Z,40.51
2022-09-30T13:41:48.466Z,40.80
2022-09-30T13:42:48.460Z,40.98
2022-09-30T13:43:46.789Z,40.90
2022-09-30T13:44:46.796Z,40.90
2022-09-30T13:45:48.524Z,40.90
2022-09-30T13:46:46.810Z,40.61
2022-09-30T13:47:46.819Z,40.82
2022-09-30T13:48:46.819Z,40.72
2022-09-30T13:49:48.463Z,40.33
2022-09-30T13:50:46.834Z,40.43
2022-09-30T13:51:46.861Z,40.25
2022-09-30T13:52:48.471Z,40.45
2022-09-30T13:53:46.850Z,40.35
2022-09-30T13:54:46.861Z,40.63
2022-09-30T13:55:46.862Z,40.64
2022-09-30T13:56:48.472Z,40.23
2022-09-30T13:57:46.883Z,40.90
2022-09-30T13:58:48.466Z,40.88
2022-09-30T13:59:48.470Z,40.61
2022-09-30T14:00:48.591Z,40.68
2022-09-30T14:01:48.469Z,40.68
2022-09-30T14:02:48.480Z,40.48
2022-09-30T14:03:48.517Z,40.58
2022-09-30T14:04:48.485Z,40.68
2022-09-30T14:05:48.471Z,40.37
2022-09-30T14:06:48.474Z,40.95
2022-09-30T14:07:48.488Z,40.47
2022-09-30T14:08:48.489Z,40.66
2022-09-30T14:09:48.490Z,40.68
2022-09-30T14:10:48.491Z,40.48
2022-09-30T14:11:48.481Z,40.56
2022-09-30T14:12:48.517Z,40.74
2022-09-30T14:13:48.487Z,41.02
2022-09-30T14:14:48.511Z,41.29
2022-09-30T14:15:48.550Z,41.07
2022-09-30T14:16:48.483Z,41.27
2022-09-30T14:17:48.486Z,41.27
2022-09-30T14:18:48.494Z,41.00
2022-09-30T14:19:48.991Z,40.80
2022-09-30T14:20:48.504Z,40.70
2022-09-30T14:21:48.986Z,40.60
2022-09-30T14:22:48.993Z,40.78
2022-09-30T14:23:48.999Z,41.27
2022-09-30T14:24:48.994Z,41.44
2022-09-30T14:25:49.026Z,41.33
2022-09-30T14:26:48.995Z,41.52
2022-09-30T14:27:49.095Z,41.99
2022-09-30T14:28:47.055Z,41.60
2022-09-30T14:29:48.040Z,41.80
2022-09-30T14:30:50.645Z,41.41
2022-09-30T14:31:47.101Z,41.31
2022-09-30T14:32:47.051Z,41.33
2022-09-30T14:33:48.053Z,41.52
2022-09-30T14:34:47.072Z,41.52
2022-09-30T14:35:49.018Z,41.42
2022-09-30T14:36:47.068Z,41.42
2022-09-30T14:37:49.023Z,41.23
2022-09-30T14:38:47.075Z,41.33
2022-09-30T14:39:47.098Z,41.23
2022-09-30T14:40:48.090Z,41.33
2022-09-30T14:41:49.027Z,41.03
2022-09-30T14:42:49.030Z,41.42
2022-09-30T14:43:48.093Z,41.42
2022-09-30T14:44:49.059Z,41.80
2022-09-30T14:45:49.097Z,41.50
2022-09-30T14:46:47.111Z,41.58
2022-09-30T14:47:49.019Z,42.14
2022-09-30T14:48:47.117Z,42.05
2022-09-30T14:49:49.035Z,42.05
2022-09-30T14:50:49.028Z,42.44
2022-09-30T14:51:47.186Z,41.93
2022-09-30T14:52:48.138Z,42.12
2022-09-30T14:53:47.140Z,42.22
2022-09-30T14:54:48.539Z,42.10
2022-09-30T14:55:47.151Z,42.59
2022-09-30T14:56:47.143Z,42.49
2022-09-30T14:57:48.542Z,42.66
2022-09-30T14:58:47.152Z,42.86
2022-09-30T14:59:48.153Z,42.84
2022-09-30T15:00:49.080Z,42.94
2022-09-30T15:01:49.049Z,43.23
2022-09-30T15:02:49.040Z,43.13
2022-09-30T15:03:49.083Z,43.30
2022-09-30T15:04:49.099Z,43.21
2022-09-30T15:05:49.082Z,43.30
2022-09-30T15:06:49.044Z,43.30
2022-09-30T15:07:49.058Z,43.58
2022-09-30T15:08:49.058Z,43.77
2022-09-30T15:09:49.053Z,43.77
2022-09-30T15:10:49.048Z,43.85
2022-09-30T15:11:49.058Z,43.75
2022-09-30T15:12:49.092Z,43.75
2022-09-30T15:13:49.047Z,43.82
2022-09-30T15:14:49.093Z,43.92
2022-09-30T15:15:49.179Z,44.21
2022-09-30T15:16:49.086Z,44.12
2022-09-30T15:17:49.071Z,43.92
2022-09-30T15:18:49.069Z,44.09
2022-09-30T15:19:49.056Z,44.00
2022-09-30T15:20:49.071Z,43.80
2022-09-30T15:21:49.058Z,44.29
2022-09-30T15:22:49.067Z,44.56
2022-09-30T15:23:49.080Z,44.46
2022-09-30T15:24:49.095Z,44.27
2022-09-30T15:25:49.060Z,44.37
2022-09-30T15:26:49.070Z,44.54
2022-09-30T15:27:49.101Z,44.64
2022-09-30T15:28:49.067Z,44.64
2022-09-30T15:29:49.101Z,44.54
2022-09-30T15:30:48.581Z,44.81
2022-09-30T15:31:47.293Z,44.61
2022-09-30T15:32:50.412Z,44.81
2022-09-30T15:33:49.069Z,44.81
2022-09-30T15:34:48.228Z,44.59
2022-09-30T15:35:49.096Z,44.88
2022-09-30T15:36:49.073Z,44.78
2022-09-30T15:37:49.075Z,44.49
2022-09-30T15:38:49.071Z,44.98
2022-09-30T15:39:49.107Z,44.88
2022-09-30T15:40:49.080Z,44.76
2022-09-30T15:41:49.076Z,44.86
2022-09-30T15:42:49.080Z,44.86
2022-09-30T15:43:49.082Z,44.57
2022-09-30T15:44:49.105Z,44.67
2022-09-30T15:45:49.319Z,44.76
2022-09-30T15:46:49.081Z,44.86
2022-09-30T15:47:49.084Z,45.03
2022-09-30T15:48:49.098Z,45.42
2022-09-30T15:49:49.090Z,45.32
2022-09-30T15:50:49.108Z,45.03
2022-09-30T15:51:49.086Z,45.42
2022-09-30T15:52:49.126Z,44.84
2022-09-30T15:53:49.091Z,45.40
2022-09-30T15:54:49.089Z,44.72
2022-09-30T15:55:47.237Z,45.40
2022-09-30T15:56:49.111Z,45.40
2022-09-30T15:57:47.228Z,45.30
2022-09-30T15:58:49.090Z,45.30
2022-09-30T15:59:48.616Z,45.59
2022-09-30T16:00:47.319Z,45.66
2022-09-30T16:12:48.363Z,45.45
2022-09-30T16:13:47.680Z,45.62
2022-09-30T16:14:46.719Z,45.52
2022-09-30T16:15:48.303Z,45.42
2022-09-30T16:16:48.364Z,45.72
2022-09-30T16:17:47.674Z,45.52
2022-09-30T16:18:48.346Z,45.72
2022-09-30T16:19:47.812Z,45.91
2022-09-30T16:20:48.298Z,45.91
2022-09-30T16:21:48.299Z,45.91
2022-09-30T16:22:48.302Z,45.69
2022-09-30T16:23:48.313Z,45.59
2022-09-30T16:24:48.314Z,45.69
2022-09-30T16:25:48.304Z,45.79
2022-09-30T16:26:48.300Z,45.79
2022-09-30T16:27:48.375Z,45.89
2022-09-30T16:28:48.362Z,45.98
2022-09-30T16:29:48.306Z,46.08
2022-09-30T16:30:48.304Z,46.17
2022-09-30T16:31:46.792Z,46.47
2022-09-30T16:32:46.639Z,46.08
2022-09-30T16:33:48.321Z,46.34
2022-09-30T16:34:47.642Z,46.34
2022-09-30T16:35:47.838Z,46.44
2022-09-30T16:36:46.626Z,46.54
2022-09-30T16:37:48.632Z,46.44
2022-09-30T16:38:48.311Z,46.54
2022-09-30T16:39:48.318Z,46.73
2022-09-30T16:40:48.329Z,46.44
2022-09-30T16:41:48.322Z,46.25
2022-09-30T16:42:48.319Z,46.44
2022-09-30T16:43:48.317Z,46.25
2022-09-30T16:44:48.355Z,46.34
2022-09-30T16:45:48.416Z,46.25
2022-09-30T16:46:48.319Z,46.34
2022-09-30T16:47:48.342Z,46.64
2022-09-30T16:48:46.602Z,46.51
2022-09-30T16:49:48.338Z,46.51
2022-09-30T16:50:46.598Z,46.54
2022-09-30T16:51:46.598Z,46.51
2022-09-30T16:52:48.341Z,46.51
2022-09-30T16:53:47.859Z,46.61
2022-09-30T16:54:48.347Z,46.90
2022-09-30T16:55:46.587Z,46.23
2022-09-30T16:56:46.586Z,47.00
2022-09-30T16:57:48.351Z,46.71
2022-09-30T16:58:46.593Z,46.81
2022-09-30T16:59:46.590Z,46.81
2022-09-30T17:00:46.785Z,46.81
2022-09-30T17:01:46.652Z,46.71
2022-09-30T17:02:46.580Z,46.71
2022-09-30T17:03:48.361Z,46.61
2022-09-30T17:04:46.581Z,46.61
2022-09-30T17:05:46.567Z,46.71
2022-09-30T17:06:46.567Z,46.81
2022-09-30T17:07:46.569Z,46.81
2022-09-30T17:08:47.851Z,46.81
2022-09-30T17:09:48.344Z,47.07
2022-09-30T17:10:48.348Z,47.00
2022-09-30T17:11:48.360Z,46.88
2022-09-30T17:12:48.342Z,47.17
2022-09-30T17:13:48.354Z,47.19
2022-09-30T17:14:48.355Z,47.17
2022-09-30T17:15:48.361Z,47.00
2022-09-30T17:16:48.457Z,47.07
2022-09-30T17:17:48.366Z,46.88
2022-09-30T17:18:48.374Z,47.07